Brant — 5BBK2 — position and weather

sailwx.info

Track history (hours):
 
Tides and Currents Weather Stations Pressure Air Temp Water Temp Dewpoint Dewpoint Depression Visibility Wind Speed Wind Dir Waves Ship Positions

Brant

Last reported at 2016-May-29 04:31 UTC. Time now 2016-May-29 05:47 UTC.
Position N 36°07' W 005°21'.

Length 185 m; draft 10 m.

Type: Cargo ship. MMSI: 212372000.

Date/timePositionNaut miles runAvg speedWind from/ knotsBaromVisibWave heightAir tempDewpointWater temp
2016-May-29 04:31N 36°07' W 005°21'0 0.0
2016-May-29 03:31N 36°07' W 005°21'0 0.2
2016-May-29 02:31N 36°07' W 005°21'0 0.0
2016-May-29 01:31N 36°07' W 005°21'0 0.0
2016-May-29 00:31N 36°07' W 005°21'0 0.1
2016-May-28 23:31N 36°07' W 005°21'6 6.4
2016-May-28 22:33N 36°01' W 005°24'24510.6
2016-May-27 23:24N 37°58' W 009°54'  
2016-May-25 00:17N 49°48' W 003°22'1512.3
2016-May-24 23:06N 49°55' W 003°03'611.3
2016-May-24 22:33N 49°58' W 002°54'5710.8
2016-May-24 17:16N 49°60' W 001°26'2514.4
2016-May-24 15:33N 49°48' W 000°52'1414.1
2016-May-24 14:33N 49°40' W 000°34'1313.0
2016-May-24 13:33N 49°33' W 000°18'1211.5
2016-May-24 12:33N 49°28' W 000°01'9 9.4
2016-May-24 11:34N 49°26' E 000°13'9 9.0
2016-May-24 10:33N 49°28' E 000°26'6 5.8
2016-May-24 09:27N 49°26' E 000°36'  
Track history (hours):
 
Tides and Currents Weather Stations Pressure Air Temp Water Temp Dewpoint Dewpoint Depression Visibility Wind Speed Wind Dir Waves Ship Positions

Brant

Last reported at 2016-May-29 04:31 UTC. Time now 2016-May-29 05:47 UTC.
Position N 36°07' W 005°21'.

Length 185 m; draft 10 m.

Type: Cargo ship. MMSI: 212372000.

Date/timePositionNaut miles runAvg speedWind from/ knotsBaromVisibWave heightAir tempDewpointWater temp
2016-May-29 04:31N 36°07' W 005°21'0 0.0
2016-May-29 03:31N 36°07' W 005°21'0 0.2
2016-May-29 02:31N 36°07' W 005°21'0 0.0
2016-May-29 01:31N 36°07' W 005°21'0 0.0
2016-May-29 00:31N 36°07' W 005°21'0 0.1
2016-May-28 23:31N 36°07' W 005°21'6 6.4
2016-May-28 22:33N 36°01' W 005°24'24510.6
2016-May-27 23:24N 37°58' W 009°54'  
2016-May-25 00:17N 49°48' W 003°22'1512.3
2016-May-24 23:06N 49°55' W 003°03'611.3
2016-May-24 22:33N 49°58' W 002°54'5710.8
2016-May-24 17:16N 49°60' W 001°26'2514.4
2016-May-24 15:33N 49°48' W 000°52'1414.1
2016-May-24 14:33N 49°40' W 000°34'1313.0
2016-May-24 13:33N 49°33' W 000°18'1211.5
2016-May-24 12:33N 49°28' W 000°01'9 9.4
2016-May-24 11:34N 49°26' E 000°13'9 9.0
2016-May-24 10:33N 49°28' E 000°26'6 5.8
2016-May-24 09:27N 49°26' E 000°36'  

Dump ship's entire track history